Time;durP1;ratioP1;P1;durP2;ratioP2;P2;SDS_P1;SDS_P2;PMS_P1;PMS_P2;Temp;Humidity;BMP_temperature;BMP_pressure;BME280_temperature;BME280_humidity;BME280_pressure;Samples;Min_cycle;Max_cycle;Signal;HPM_P1;HPM_P2
2022/07/03 00:01:12;;;;;;;10.93;4.57;;;;;;;;;;5148081;27;19997;-75
2022/07/03 00:03:38;;;;;;;;;;;;;;;;;;5148648;27;20132;-76
2022/07/03 00:06:04;;;;;;;15.52;4.60;;;;;;;;;;5150791;27;19971;-81
2022/07/03 00:08:30;;;;;;;11.80;4.38;;;;;;;;;;5152270;27;20092;-80
2022/07/03 00:10:56;;;;;;;11.23;4.70;;;;;;;;;;5143421;27;20326;-76
2022/07/03 00:13:22;;;;;;;;;;;;;;;;;;5145823;27;20031;-71
2022/07/03 00:15:48;;;;;;;9.88;4.25;;;;;;;;;;5150485;27;19915;-75
2022/07/03 00:18:14;;;;;;;13.13;4.50;;;;;;;;;;5133413;27;20201;-78
2022/07/03 00:20:45;;;;;;;11.48;4.75;;;;;;;;;;5140926;27;20069;-76
2022/07/03 00:23:13;;;;;;;14.40;4.80;;;;;;;;;;5147565;27;20049;-74
2022/07/03 00:25:40;;;;;;;10.07;4.95;;;;;;;;;;5150932;27;20043;-77
2022/07/03 00:28:07;;;;;;;13.90;5.05;;;;;;;;;;5149713;27;20260;-78
2022/07/03 00:30:33;;;;;;;10.13;4.82;;;;;;;;;;5149421;27;20034;-78
2022/07/03 00:33:01;;;;;;;12.02;4.97;;;;;;;;;;5148826;27;20038;-77
2022/07/03 00:35:28;;;;;;;10.35;4.68;;;;;;;;;;5147951;27;20419;-77
2022/07/03 00:37:54;;;;;;;12.05;4.93;;;;;;;;;;5151039;27;20150;-76
2022/07/03 00:40:21;;;;;;;11.60;5.15;;;;;;;;;;5150871;27;20122;-76
2022/07/03 00:42:51;;;;;;;12.18;4.88;;;;;;;;;;5148882;27;20134;-74
2022/07/03 00:45:19;;;;;;;13.82;4.93;;;;;;;;;;5147857;27;20130;-77
2022/07/03 00:47:45;;;;;;;11.07;5.00;;;;;;;;;;5132919;27;20121;-77
2022/07/03 00:50:11;;;;;;;11.43;5.00;;;;;;;;;;5149493;27;20046;-75
2022/07/03 00:52:39;;;;;;;10.65;5.22;;;;;;;;;;5149657;27;20054;-75
2022/07/03 00:55:07;;;;;;;12.35;5.57;;;;;;;;;;5146343;27;20178;-76
2022/07/03 00:57:36;;;;;;;10.40;5.35;;;;;;;;;;5150744;27;20098;-76
2022/07/03 01:00:02;;;;;;;13.85;6.15;;;;;;;;;;5130589;27;20193;-77
2022/07/03 01:02:28;;;;;;;;;;;;;;;;;;5138180;27;20061;-76
2022/07/03 01:05:07;;;;;;;12.38;5.18;;;;;;;;;;5121620;27;19938;-75
2022/07/03 01:07:40;;;;;;;10.32;5.40;;;;;;;;;;5133151;27;20039;-75
2022/07/03 01:10:17;;;;;;;14.80;5.45;;;;;;;;;;5124390;27;20556;-75
2022/07/03 01:12:43;;;;;;;11.13;5.28;;;;;;;;;;5150447;27;20046;-75
2022/07/03 01:15:09;;;;;;;9.68;4.80;;;;;;;;;;5147573;27;20038;-75
2022/07/03 01:17:38;;;;;;;11.05;5.43;;;;;;;;;;5148796;27;20046;-74
2022/07/03 01:20:06;;;;;;;13.00;5.20;;;;;;;;;;5111145;27;20039;-75
2022/07/03 01:22:35;;;;;;;12.30;5.72;;;;;;;;;;5145315;27;20091;-76
2022/07/03 01:25:13;;;;;;;12.95;5.85;;;;;;;;;;5146922;27;20043;-75
2022/07/03 01:27:48;;;;;;;13.25;5.50;;;;;;;;;;5146541;27;20039;-75
2022/07/03 01:30:14;;;;;;;13.75;6.63;;;;;;;;;;5149407;27;20116;-74
2022/07/03 01:32:40;;;;;;;;;;;;;;;;;;5148348;27;20045;-74
2022/07/03 01:35:07;;;;;;;14.60;6.22;;;;;;;;;;5147265;27;19915;-73
2022/07/03 01:37:34;;;;;;;13.02;6.18;;;;;;;;;;5147763;27;20419;-74
2022/07/03 01:40:02;;;;;;;15.57;6.18;;;;;;;;;;5150203;27;20117;-74
2022/07/03 01:42:29;;;;;;;13.02;6.38;;;;;;;;;;5149174;27;20078;-74
2022/07/03 01:44:56;;;;;;;12.02;6.05;;;;;;;;;;5148047;27;20209;-74
2022/07/03 01:47:24;;;;;;;15.65;6.20;;;;;;;;;;5142470;27;20111;-75
2022/07/03 01:49:50;;;;;;;12.40;6.05;;;;;;;;;;5149820;27;20046;-75
2022/07/03 01:52:18;;;;;;;13.48;6.18;;;;;;;;;;5136936;27;20079;-75
2022/07/03 01:54:45;;;;;;;13.25;6.25;;;;;;;;;;5129589;27;20187;-75
2022/07/03 01:57:11;;;;;;;11.93;5.80;;;;;;;;;;5123224;27;20406;-74
2022/07/03 01:59:37;;;;;;;9.85;5.13;;;;;;;;;;5146481;27;20042;-74
2022/07/03 02:02:06;;;;;;;11.50;6.13;;;;;;;;;;5096248;27;20150;-74
2022/07/03 02:04:44;;;;;;;10.32;5.85;;;;;;;;;;5148915;27;20164;-75
2022/07/03 02:07:34;;;;;;;10.57;5.97;;;;;;;;;;5139713;27;20043;-74
2022/07/03 02:10:05;;;;;;;12.65;5.80;;;;;;;;;;5121777;27;20083;-73
2022/07/03 02:12:44;;;;;;;12.40;5.90;;;;;;;;;;5148675;27;20030;-74
2022/07/03 02:15:11;;;;;;;11.73;6.50;;;;;;;;;;5149281;27;20050;-74
2022/07/03 02:17:45;;;;;;;13.40;5.93;;;;;;;;;;5149001;27;20502;-75
2022/07/03 02:20:12;;;;;;;12.73;6.53;;;;;;;;;;5145121;27;20146;-75
2022/07/03 02:22:42;;;;;;;12.73;6.47;;;;;;;;;;5138805;27;20042;-75
2022/07/03 02:25:09;;;;;;;12.10;6.43;;;;;;;;;;5130738;27;20058;-74
2022/07/03 02:27:42;;;;;;;13.57;6.65;;;;;;;;;;5138888;27;20211;-76
2022/07/03 02:30:09;;;;;;;12.68;6.65;;;;;;;;;;5139068;27;20393;-78
2022/07/03 02:32:45;;;;;;;12.40;6.57;;;;;;;;;;5113225;27;20486;-78
2022/07/03 02:35:29;;;;;;;11.93;6.68;;;;;;;;;;5143850;27;20034;-77
2022/07/03 02:38:01;;;;;;;12.45;6.65;;;;;;;;;;5148994;27;20046;-76
2022/07/03 02:40:40;;;;;;;13.07;6.75;;;;;;;;;;5148634;27;20118;-75
2022/07/03 02:43:21;;;;;;;11.93;6.70;;;;;;;;;;5146566;27;20169;-75
2022/07/03 02:45:55;;;;;;;14.98;7.25;;;;;;;;;;5149896;27;20104;-76
2022/07/03 02:48:41;;;;;;;13.38;6.70;;;;;;;;;;5147547;27;20461;-75
2022/07/03 02:51:10;;;;;;;16.13;7.00;;;;;;;;;;5124762;28;20096;-78
2022/07/03 02:53:51;;;;;;;14.23;7.30;;;;;;;;;;5109384;28;20040;-75
2022/07/03 02:56:26;;;;;;;12.75;6.70;;;;;;;;;;5112066;28;20051;-74
2022/07/03 02:59:12;;;;;;;13.63;6.97;;;;;;;;;;5122558;27;20050;-75
2022/07/03 03:01:47;;;;;;;14.10;6.90;;;;;;;;;;5129425;27;20104;-75
2022/07/03 03:04:25;;;;;;;13.30;6.93;;;;;;;;;;5130573;27;20106;-74
2022/07/03 03:06:56;;;;;;;12.40;7.03;;;;;;;;;;5131321;27;20095;-74
2022/07/03 03:09:27;;;;;;;14.73;7.15;;;;;;;;;;5111124;28;20050;-75
2022/07/03 03:11:54;;;;;;;14.38;7.40;;;;;;;;;;5120514;27;20031;-74
2022/07/03 03:14:21;;;;;;;13.57;7.07;;;;;;;;;;5128741;27;20047;-75
2022/07/03 03:16:48;;;;;;;12.55;6.80;;;;;;;;;;5131929;27;20478;-75
2022/07/03 03:19:15;;;;;;;12.32;7.22;;;;;;;;;;5130032;27;20058;-75
2022/07/03 03:21:40;;;;;;;;;;;;;;;;;;5129500;27;20087;-75
2022/07/03 03:24:07;;;;;;;15.07;7.60;;;;;;;;;;5127320;27;19991;-76
2022/07/03 03:26:33;;;;;;;12.32;6.75;;;;;;;;;;5128729;27;20039;-75
2022/07/03 03:28:59;;;;;;;12.85;6.93;;;;;;;;;;5129531;27;20130;-75
2022/07/03 03:31:26;;;;;;;14.20;7.22;;;;;;;;;;5129948;27;20035;-75
2022/07/03 03:33:53;;;;;;;15.43;6.72;;;;;;;;;;5124780;27;20035;-75
2022/07/03 03:36:19;;;;;;;;;;;;;;;;;;5130423;27;20047;-74
2022/07/03 03:38:46;;;;;;;15.65;7.47;;;;;;;;;;5128399;27;20009;-75
2022/07/03 03:41:12;;;;;;;15.15;6.90;;;;;;;;;;5130106;27;20047;-73
2022/07/03 03:43:38;;;;;;;16.50;7.65;;;;;;;;;;5127074;27;20058;-75
2022/07/03 03:46:04;;;;;;;;;;;;;;;;;;5129265;27;20086;-75
2022/07/03 03:48:32;;;;;;;12.18;6.93;;;;;;;;;;5126794;27;20274;-75
2022/07/03 03:50:58;;;;;;;13.23;7.40;;;;;;;;;;5135684;27;20154;-75
2022/07/03 03:53:25;;;;;;;12.80;6.80;;;;;;;;;;5147955;27;20051;-75
2022/07/03 03:56:00;;;;;;;12.52;7.10;;;;;;;;;;5132063;27;20474;-75
2022/07/03 03:58:27;;;;;;;12.73;7.45;;;;;;;;;;5147156;27;20034;-75
2022/07/03 04:00:53;;;;;;;15.35;7.72;;;;;;;;;;5132093;27;20057;-75
2022/07/03 04:03:19;;;;;;;;;;;;;;;;;;5129181;27;20042;-74
2022/07/03 04:05:45;;;;;;;13.40;8.20;;;;;;;;;;5150022;27;19934;-74
2022/07/03 04:08:12;;;;;;;14.68;8.35;;;;;;;;;;5148637;27;20050;-74
2022/07/03 04:10:38;;;;;;;17.42;7.53;;;;;;;;;;5131865;27;20500;-75
2022/07/03 04:13:05;;;;;;;15.15;7.63;;;;;;;;;;5130555;27;20095;-74
2022/07/03 04:15:31;;;;;;;;;;;;;;;;;;5135272;27;20034;-75
2022/07/03 04:17:57;;;;;;;16.77;8.18;;;;;;;;;;5148739;27;20373;-74
2022/07/03 04:20:23;;;;;;;14.90;8.27;;;;;;;;;;5127819;27;20046;-71
2022/07/03 04:22:50;;;;;;;;;;;;;;;;;;5150429;27;20083;-73
2022/07/03 04:25:16;;;;;;;15.45;7.93;;;;;;;;;;5146531;27;20002;-72
2022/07/03 04:27:42;;;;;;;13.02;7.32;;;;;;;;;;5129234;27;20487;-73
2022/07/03 04:30:10;;;;;;;12.02;7.43;;;;;;;;;;5146969;27;20041;-73
2022/07/03 04:32:39;;;;;;;13.45;7.82;;;;;;;;;;5147511;27;20946;-73
2022/07/03 04:35:06;;;;;;;13.65;7.70;;;;;;;;;;5145795;27;20050;-73
2022/07/03 04:37:32;;;;;;;14.57;7.22;;;;;;;;;;5147562;27;20042;-73
2022/07/03 04:39:58;;;;;;;12.95;7.45;;;;;;;;;;5147873;27;20058;-73
2022/07/03 04:42:24;;;;;;;15.48;8.40;;;;;;;;;;5146363;27;20043;-73
2022/07/03 04:44:50;;;;;;;14.57;8.30;;;;;;;;;;5120213;27;20149;-73
2022/07/03 04:47:16;;;;;;;13.60;7.40;;;;;;;;;;5128935;27;20119;-73
2022/07/03 04:49:42;;;;;;;14.95;7.35;;;;;;;;;;5146261;27;20055;-73
2022/07/03 04:52:09;;;;;;;17.17;8.10;;;;;;;;;;5149439;27;20102;-74
2022/07/03 04:54:35;;;;;;;11.68;6.38;;;;;;;;;;5148144;27;20039;-73
2022/07/03 04:57:01;;;;;;;13.43;7.53;;;;;;;;;;5146479;27;20098;-74
2022/07/03 04:59:27;;;;;;;14.02;7.10;;;;;;;;;;5143818;27;20034;-73
2022/07/03 05:01:53;;;;;;;14.10;7.70;;;;;;;;;;5148642;27;20438;-75
2022/07/03 05:04:19;;;;;;;12.45;7.63;;;;;;;;;;5146282;27;20467;-74
2022/07/03 05:06:46;;;;;;;14.18;7.43;;;;;;;;;;5149074;27;20045;-74
2022/07/03 05:09:12;;;;;;;15.50;7.78;;;;;;;;;;5141490;27;20461;-74
2022/07/03 05:11:38;;;;;;;20.85;7.35;;;;;;;;;;5147781;27;20098;-74
2022/07/03 05:14:04;;;;;;;;;;;;;;;;;;5145949;27;20452;-73
2022/07/03 05:16:30;;;;;;;13.57;6.30;;;;;;;;;;5147953;27;20085;-73
2022/07/03 05:18:56;;;;;;;;;;;;;;;;;;5148785;27;20098;-73
2022/07/03 05:21:22;;;;;;;12.40;5.97;;;;;;;;;;5142088;27;19950;-73
2022/07/03 05:23:48;;;;;;;13.02;6.43;;;;;;;;;;5146629;27;20104;-74
2022/07/03 05:26:14;;;;;;;;;;;;;;;;;;5144900;27;20114;-73
2022/07/03 05:28:40;;;;;;;12.50;5.93;;;;;;;;;;5147283;27;19983;-73
2022/07/03 05:31:06;;;;;;;;;;;;;;;;;;5144334;27;20498;-74
2022/07/03 05:33:32;;;;;;;10.45;5.18;;;;;;;;;;5146702;27;20010;-74
2022/07/03 05:35:59;;;;;;;10.55;5.13;;;;;;;;;;5140342;27;20126;-73
2022/07/03 05:41:10;;;;;;;11.10;4.80;;;;;;;;;;5135672;27;20034;-74
2022/07/03 05:43:36;;;;;;;10.60;4.50;;;;;;;;;;5141814;27;20038;-74
2022/07/03 05:46:03;;;;;;;;;;;;;;;;;;5143378;27;20085;-73
2022/07/03 05:48:29;;;;;;;10.00;4.30;;;;;;;;;;5145390;27;19915;-75
2022/07/03 05:50:55;;;;;;;10.93;4.43;;;;;;;;;;5146778;27;20395;-78
2022/07/03 05:53:21;;;;;;;;;;;;;;;;;;5147855;27;20098;-75
2022/07/03 05:55:47;;;;;;;10.32;4.68;;;;;;;;;;5116877;28;20810;-76
2022/07/03 05:58:13;;;;;;;;;;;;;;;;;;5139893;27;20038;-78
2022/07/03 06:00:39;;;;;;;10.85;4.65;;;;;;;;;;5143247;27;19944;-74
2022/07/03 06:03:05;;;;;;;9.73;4.38;;;;;;;;;;5127496;28;20039;-76
2022/07/03 06:05:32;;;;;;;;;;;;;;;;;;5134763;27;20042;-77
2022/07/03 06:07:58;;;;;;;11.50;5.38;;;;;;;;;;5141152;27;19938;-78
2022/07/03 06:10:25;;;;;;;11.30;5.00;;;;;;;;;;5139434;27;20058;-75
2022/07/03 06:12:51;;;;;;;12.63;5.43;;;;;;;;;;5146613;27;20039;-79
2022/07/03 06:15:17;;;;;;;14.93;5.57;;;;;;;;;;5144465;27;20075;-79
2022/07/03 06:17:46;;;;;;;;;;;;;;;;;;5146864;27;20050;-79
2022/07/03 06:20:12;;;;;;;9.35;3.25;;;;;;;;;;5146044;27;19990;-75
2022/07/03 06:22:38;;;;;;;11.05;3.20;;;;;;;;;;5146151;27;20478;-78
2022/07/03 06:25:04;;;;;;;;;;;;;;;;;;5146379;27;20049;-72
2022/07/03 06:27:30;;;;;;;11.80;3.03;;;;;;;;;;5145108;27;19914;-74
2022/07/03 06:29:56;;;;;;;8.02;3.00;;;;;;;;;;5150985;27;20077;-74
2022/07/03 06:32:22;;;;;;;17.33;3.05;;;;;;;;;;5121888;27;20026;-74
2022/07/03 06:34:49;;;;;;;9.20;2.72;;;;;;;;;;5146536;27;20046;-73
2022/07/03 06:37:15;;;;;;;11.73;3.40;;;;;;;;;;5136721;27;20082;-73
2022/07/03 06:39:41;;;;;;;9.68;2.80;;;;;;;;;;5141732;27;20073;-76
2022/07/03 06:42:07;;;;;;;9.48;2.97;;;;;;;;;;5145079;27;20308;-78
2022/07/03 06:44:33;;;;;;;;;;;;;;;;;;5153219;27;20046;-76
2022/07/03 06:47:03;;;;;;;9.07;3.13;;;;;;;;;;5148866;27;19915;-78
2022/07/03 06:49:29;;;;;;;9.07;3.00;;;;;;;;;;5149742;27;20035;-76
2022/07/03 06:51:55;;;;;;;7.45;2.67;;;;;;;;;;5152001;27;20090;-76
2022/07/03 06:54:21;;;;;;;;;;;;;;;;;;5153085;27;20109;-80
2022/07/03 06:56:47;;;;;;;7.30;2.42;;;;;;;;;;5151859;27;19961;-77
2022/07/03 06:59:13;;;;;;;12.40;2.90;;;;;;;;;;5151970;27;20142;-75
2022/07/03 07:01:40;;;;;;;9.32;2.83;;;;;;;;;;5124885;27;20463;-77
2022/07/03 07:04:06;;;;;;;10.48;2.85;;;;;;;;;;5146354;27;20447;-78
2022/07/03 07:06:32;;;;;;;9.70;3.03;;;;;;;;;;5117198;27;20165;-74
2022/07/03 07:08:58;;;;;;;;;;;;;;;;;;5130761;27;20489;-72
2022/07/03 07:11:24;;;;;;;9.95;3.20;;;;;;;;;;5126147;27;19974;-73
2022/07/03 07:13:50;;;;;;;8.32;3.13;;;;;;;;;;5142434;27;20377;-74
2022/07/03 07:16:16;;;;;;;8.10;2.80;;;;;;;;;;5139473;27;20050;-75
2022/07/03 07:18:43;;;;;;;14.50;3.20;;;;;;;;;;5144224;27;20038;-76
2022/07/03 07:21:09;;;;;;;11.43;3.42;;;;;;;;;;5131987;27;20054;-75
2022/07/03 07:23:35;;;;;;;9.20;3.25;;;;;;;;;;5147270;27;20045;-74
2022/07/03 07:26:01;;;;;;;;;;;;;;;;;;5130595;27;20362;-78
2022/07/03 07:28:28;;;;;;;10.15;3.45;;;;;;;;;;5143699;27;19927;-74
2022/07/03 07:30:55;;;;;;;7.13;2.90;;;;;;;;;;5151185;27;20053;-79
2022/07/03 07:33:21;;;;;;;12.20;3.35;;;;;;;;;;5149501;27;20052;-78
2022/07/03 07:35:47;;;;;;;9.38;3.00;;;;;;;;;;5136534;27;20039;-76
2022/07/03 07:38:13;;;;;;;9.10;3.05;;;;;;;;;;5132010;27;20108;-76
2022/07/03 07:40:39;;;;;;;;;;;;;;;;;;5145370;27;20035;-75
2022/07/03 07:43:05;;;;;;;11.00;3.05;;;;;;;;;;5130412;27;19922;-75
2022/07/03 07:45:31;;;;;;;9.13;2.80;;;;;;;;;;5150255;27;20038;-75
2022/07/03 07:47:57;;;;;;;10.48;3.45;;;;;;;;;;5149731;27;20094;-74
2022/07/03 07:50:23;;;;;;;;;;;;;;;;;;5149269;27;20035;-75
2022/07/03 07:52:49;;;;;;;9.23;3.13;;;;;;;;;;5139313;27;19934;-73
2022/07/03 07:55:15;;;;;;;;;;;;;;;;;;5130687;27;20092;-74
2022/07/03 07:57:42;;;;;;;10.38;3.00;;;;;;;;;;5130410;27;19962;-69
2022/07/03 08:00:15;;;;;;;9.43;2.83;;;;;;;;;;5132326;27;20084;-72
2022/07/03 08:05:36;;;;;;;9.77;2.70;;;;;;;;;;5140491;27;20117;-74
2022/07/03 08:08:03;;;;;;;6.55;2.33;;;;;;;;;;5118022;27;20076;-75
2022/07/03 08:10:29;;;;;;;7.25;2.30;;;;;;;;;;5150678;27;20485;-74
2022/07/03 08:12:55;;;;;;;;;;;;;;;;;;5146720;27;20065;-72
2022/07/03 08:15:21;;;;;;;10.70;2.60;;;;;;;;;;5150249;27;20343;-75
2022/07/03 08:17:47;;;;;;;7.55;2.80;;;;;;;;;;5140356;27;20100;-72
2022/07/03 08:20:13;;;;;;;6.82;2.72;;;;;;;;;;5130745;27;20100;-72
2022/07/03 08:22:39;;;;;;;6.78;2.55;;;;;;;;;;5138245;27;20434;-75
2022/07/03 08:25:05;;;;;;;8.30;2.45;;;;;;;;;;5140105;27;20485;-74
2022/07/03 08:27:31;;;;;;;;;;;;;;;;;;5136503;27;20042;-70
2022/07/03 08:29:57;;;;;;;9.60;2.72;;;;;;;;;;5138629;27;20327;-74
2022/07/03 08:32:23;;;;;;;;;;;;;;;;;;5135517;27;20126;-72
2022/07/03 08:34:49;;;;;;;5.85;2.17;;;;;;;;;;5105585;27;19919;-71
2022/07/03 08:37:15;;;;;;;7.03;2.20;;;;;;;;;;5141542;27;20070;-74
2022/07/03 08:39:41;;;;;;;;;;;;;;;;;;5142313;27;20126;-74
2022/07/03 08:42:08;;;;;;;7.82;2.10;;;;;;;;;;5138968;27;19997;-80
2022/07/03 08:44:36;;;;;;;5.45;2.10;;;;;;;;;;5133882;27;20042;-72
2022/07/03 08:47:03;;;;;;;6.60;1.92;;;;;;;;;;5137938;27;20061;-76
2022/07/03 08:49:30;;;;;;;8.70;2.15;;;;;;;;;;5142865;27;20077;-81
2022/07/03 08:51:56;;;;;;;5.18;1.80;;;;;;;;;;5137409;27;20054;-79
2022/07/03 08:54:22;;;;;;;;;;;;;;;;;;5141483;27;20042;-75
2022/07/03 08:56:49;;;;;;;6.55;1.98;;;;;;;;;;5140648;27;19922;-75
2022/07/03 08:59:15;;;;;;;5.75;1.75;;;;;;;;;;5140759;27;20481;-73
2022/07/03 09:01:43;;;;;;;4.25;1.73;;;;;;;;;;5122584;27;20129;-78
2022/07/03 09:04:13;;;;;;;6.10;1.80;;;;;;;;;;5144905;27;20099;-81
2022/07/03 09:06:40;;;;;;;4.40;1.55;;;;;;;;;;5131005;27;20047;-78
2022/07/03 09:09:07;;;;;;;7.47;1.92;;;;;;;;;;5131295;27;20047;-73
2022/07/03 09:11:33;;;;;;;4.15;1.65;;;;;;;;;;5134600;27;20504;-75
2022/07/03 09:13:59;;;;;;;;;;;;;;;;;;5144517;27;20070;-76
2022/07/03 09:16:25;;;;;;;5.13;1.50;;;;;;;;;;5148715;27;19961;-81
2022/07/03 09:18:51;;;;;;;;;;;;;;;;;;5117632;27;20134;-78
2022/07/03 09:21:17;;;;;;;6.28;1.80;;;;;;;;;;5136730;27;20040;-78
2022/07/03 09:23:44;;;;;;;6.00;1.80;;;;;;;;;;5140993;27;20450;-83
2022/07/03 09:26:14;;;;;;;8.30;2.95;;;;;;;;;;5148147;27;20165;-81
2022/07/03 09:28:55;;;;;;;4.55;1.60;;;;;;;;;;5138686;27;20126;-80
2022/07/03 09:31:24;;;;;;;4.93;1.60;;;;;;;;;;5144349;27;20039;-82
2022/07/03 09:33:50;;;;;;;5.05;1.48;;;;;;;;;;5121264;27;20034;-79
2022/07/03 09:36:16;;;;;;;;;;;;;;;;;;5147416;27;20034;-81
2022/07/03 09:38:45;;;;;;;6.20;1.45;;;;;;;;;;5142158;27;20229;-85
2022/07/03 09:41:11;;;;;;;6.07;1.73;;;;;;;;;;5129520;27;20039;-88
2022/07/03 09:43:42;;;;;;;4.63;1.70;;;;;;;;;;5133777;27;20080;-87
2022/07/03 09:46:08;;;;;;;5.00;1.58;;;;;;;;;;5146108;27;20123;-90
2022/07/03 09:48:35;;;;;;;5.25;1.70;;;;;;;;;;5129629;27;20053;-76
2022/07/03 09:51:10;;;;;;;4.95;1.52;;;;;;;;;;5140463;27;20055;-85
2022/07/03 09:53:45;;;;;;;3.90;1.50;;;;;;;;;;5122579;27;20122;-81
2022/07/03 09:56:11;;;;;;;5.35;1.70;;;;;;;;;;5128573;27;20053;-81
2022/07/03 09:58:38;;;;;;;6.43;1.83;;;;;;;;;;5128092;27;20058;-82
2022/07/03 10:01:17;;;;;;;7.07;1.67;;;;;;;;;;5139975;27;20588;-85
2022/07/03 10:03:43;;;;;;;5.10;1.73;;;;;;;;;;5136119;27;20039;-88
2022/07/03 10:06:09;;;;;;;;;;;;;;;;;;5139003;27;20046;-86
2022/07/03 10:08:36;;;;;;;5.28;1.73;;;;;;;;;;5130129;27;19915;-86
2022/07/03 10:11:02;;;;;;;5.05;1.50;;;;;;;;;;5148318;27;20031;-88
2022/07/03 10:13:28;;;;;;;6.78;1.73;;;;;;;;;;5116531;27;20073;-77
2022/07/03 10:15:56;;;;;;;10.38;2.13;;;;;;;;;;5144990;27;20155;-74
2022/07/03 10:18:24;;;;;;;4.70;1.75;;;;;;;;;;5142444;27;20474;-82
2022/07/03 10:20:50;;;;;;;8.30;1.98;;;;;;;;;;5110997;28;20039;-81
2022/07/03 10:23:17;;;;;;;5.55;1.75;;;;;;;;;;5145468;27;20490;-83
2022/07/03 10:25:44;;;;;;;4.38;1.70;;;;;;;;;;5137378;27;20100;-83
2022/07/03 10:28:16;;;;;;;3.63;1.50;;;;;;;;;;5127878;27;20443;-79
2022/07/03 10:30:44;;;;;;;5.25;1.70;;;;;;;;;;5147663;27;20110;-83
2022/07/03 10:33:10;;;;;;;7.90;1.95;;;;;;;;;;5145720;27;20098;-81
2022/07/03 10:35:36;;;;;;;;;;;;;;;;;;5112966;28;20047;-83
2022/07/03 10:38:02;;;;;;;4.63;1.70;;;;;;;;;;5137555;27;20037;-85
2022/07/03 10:46:11;;;;;;;6.47;1.83;;;;;;;;;;5140955;27;20043;-81
2022/07/03 10:48:55;;;;;;;6.10;1.65;;;;;;;;;;5143621;27;20125;-81
2022/07/03 10:51:22;;;;;;;6.97;1.85;;;;;;;;;;5145289;27;20119;-78
2022/07/03 10:53:48;;;;;;;3.42;1.80;;;;;;;;;;5144928;27;20374;-83
2022/07/03 10:56:15;;;;;;;7.55;1.80;;;;;;;;;;5137421;27;20054;-80
2022/07/03 10:58:57;;;;;;;6.75;1.90;;;;;;;;;;5144197;27;20035;-80
2022/07/03 11:01:30;;;;;;;6.20;1.83;;;;;;;;;;5146600;27;20106;-91
2022/07/03 11:04:02;;;;;;;9.50;1.90;;;;;;;;;;5125123;27;20478;-84
2022/07/03 11:06:41;;;;;;;5.03;1.88;;;;;;;;;;5125552;27;20079;-82
2022/07/03 11:09:09;;;;;;;5.10;1.60;;;;;;;;;;5121975;28;20046;-81
2022/07/03 11:11:54;;;;;;;6.70;1.80;;;;;;;;;;5124912;27;20342;-82
2022/07/03 11:14:21;;;;;;;6.32;1.80;;;;;;;;;;5140339;27;20112;-95
2022/07/03 11:16:47;;;;;;;5.78;1.60;;;;;;;;;;5139421;27;20031;-77
2022/07/03 11:19:14;;;;;;;4.65;1.70;;;;;;;;;;5137874;27;20039;-85
2022/07/03 11:21:48;;;;;;;6.90;2.05;;;;;;;;;;5149558;27;20045;-91
2022/07/03 11:24:28;;;;;;;7.20;1.95;;;;;;;;;;5144443;27;20454;-84
2022/07/03 11:27:14;;;;;;;7.70;2.05;;;;;;;;;;5144825;27;20042;-87
2022/07/03 11:29:41;;;;;;;9.13;2.50;;;;;;;;;;5129887;27;20114;-84
2022/07/03 11:32:26;;;;;;;6.90;2.00;;;;;;;;;;5148041;27;20454;-82
2022/07/03 11:34:52;;;;;;;7.13;2.00;;;;;;;;;;5140471;27;20039;-81
2022/07/03 11:37:18;;;;;;;;;;;;;;;;;;5146631;27;20065;-85
2022/07/03 11:39:45;;;;;;;10.68;2.10;;;;;;;;;;5149958;27;19935;-84
2022/07/03 11:42:11;;;;;;;11.00;2.20;;;;;;;;;;5149893;27;20039;-83
2022/07/03 11:44:37;;;;;;;;;;;;;;;;;;5133521;27;20118;-87
2022/07/03 11:47:03;;;;;;;7.55;2.35;;;;;;;;;;5142877;27;19919;-80
2022/07/03 11:49:32;;;;;;;11.68;2.88;;;;;;;;;;5145049;27;20136;-84
2022/07/03 11:52:03;;;;;;;11.30;2.90;;;;;;;;;;5148805;27;20074;-85
2022/07/03 11:54:33;;;;;;;12.30;3.15;;;;;;;;;;5141198;27;20122;-85
2022/07/03 11:57:02;;;;;;;10.70;2.60;;;;;;;;;;5141412;27;20383;-84
2022/07/03 11:59:29;;;;;;;12.80;3.17;;;;;;;;;;5144469;27;20490;-82
2022/07/03 12:02:01;;;;;;;11.27;2.83;;;;;;;;;;5149237;27;20051;-82
2022/07/03 12:04:28;;;;;;;11.70;2.50;;;;;;;;;;5137300;27;20047;-84
2022/07/03 12:06:57;;;;;;;7.68;2.25;;;;;;;;;;5147591;27;20133;-91
2022/07/03 12:09:23;;;;;;;7.00;2.00;;;;;;;;;;5148688;27;20034;-81
2022/07/03 12:11:49;;;;;;;;;;;;;;;;;;5139938;27;20035;-85
2022/07/03 12:14:15;;;;;;;11.15;2.30;;;;;;;;;;5133395;27;20379;-85
2022/07/03 12:16:40;;;;;;;;;;;;;;;;;;5141481;27;20057;-84
2022/07/03 12:19:07;;;;;;;10.23;2.80;;;;;;;;;;5148292;27;19915;-86
2022/07/03 12:21:32;;;;;;;;;;;;;;;;;;5148063;27;20030;-85
2022/07/03 12:23:58;;;;;;;11.65;2.30;;;;;;;;;;5142797;27;19938;-90
2022/07/03 12:26:24;;;;;;;;;;;;;;;;;;5140413;27;20103;-92
2022/07/03 12:28:50;;;;;;;9.57;2.78;;;;;;;;;;5142939;27;19922;-84
2022/07/03 12:31:16;;;;;;;;;;;;;;;;;;5146516;27;20178;-85
2022/07/03 12:33:43;;;;;;;11.70;2.35;;;;;;;;;;5144941;27;20338;-84
2022/07/03 12:36:08;;;;;;;;;;;;;;;;;;5129919;27;20477;-88
2022/07/03 12:38:39;;;;;;;8.30;2.20;;;;;;;;;;5122450;27;19919;-88
2022/07/03 12:41:06;;;;;;;10.05;2.13;;;;;;;;;;5140003;27;20431;-86
2022/07/03 12:43:42;;;;;;;10.98;2.33;;;;;;;;;;5127754;27;20147;-84
2022/07/03 12:46:21;;;;;;;10.18;2.67;;;;;;;;;;5138393;27;20170;-81
2022/07/03 12:48:53;;;;;;;11.02;2.47;;;;;;;;;;5148679;27;20434;-89
2022/07/03 12:51:38;;;;;;;8.05;2.03;;;;;;;;;;5136073;27;20146;-81
2022/07/03 12:54:04;;;;;;;9.43;2.22;;;;;;;;;;5144402;27;20078;-86
2022/07/03 12:56:31;;;;;;;9.20;2.30;;;;;;;;;;5126524;27;20042;-82
2022/07/03 13:01:41;;;;;;;11.80;2.90;;;;;;;;;;5137402;27;20065;-88
2022/07/03 13:04:08;;;;;;;11.77;3.00;;;;;;;;;;5150123;27;20357;-83
2022/07/03 13:06:34;;;;;;;8.63;2.60;;;;;;;;;;5145942;27;20126;-85
2022/07/03 13:09:01;;;;;;;11.55;2.28;;;;;;;;;;5149729;27;20043;-83
2022/07/03 13:11:27;;;;;;;9.10;2.53;;;;;;;;;;5139629;27;20392;-82
2022/07/03 13:13:55;;;;;;;10.95;2.38;;;;;;;;;;5138569;27;20236;-84
2022/07/03 13:16:27;;;;;;;7.88;2.33;;;;;;;;;;5148400;27;20117;-81
2022/07/03 13:19:06;;;;;;;8.30;2.20;;;;;;;;;;5149328;27;20127;-82
2022/07/03 13:21:33;;;;;;;9.55;2.35;;;;;;;;;;5142796;27;20493;-81
2022/07/03 13:23:59;;;;;;;9.98;2.60;;;;;;;;;;5105477;27;20046;-86
2022/07/03 13:26:25;;;;;;;;;;;;;;;;;;5125504;27;20103;-85
2022/07/03 13:28:51;;;;;;;7.90;2.40;;;;;;;;;;5115830;27;19923;-83
2022/07/03 13:31:17;;;;;;;;;;;;;;;;;;5143527;27;20095;-88
2022/07/03 13:33:43;;;;;;;9.80;3.33;;;;;;;;;;5146392;27;19919;-81
2022/07/03 13:36:09;;;;;;;;;;;;;;;;;;5147747;27;20097;-82
2022/07/03 13:38:35;;;;;;;10.02;2.40;;;;;;;;;;5146698;27;19983;-81
2022/07/03 13:41:01;;;;;;;;;;;;;;;;;;5145693;27;20153;-85
2022/07/03 13:43:27;;;;;;;10.88;2.60;;;;;;;;;;5147609;27;20390;-81
2022/07/03 13:45:53;;;;;;;;;;;;;;;;;;5123752;27;20031;-78
2022/07/03 13:48:19;;;;;;;8.35;2.42;;;;;;;;;;5109594;27;19938;-86
2022/07/03 13:50:46;;;;;;;;;;;;;;;;;;5125355;27;20049;-84
2022/07/03 13:53:13;;;;;;;7.30;2.58;;;;;;;;;;5114003;27;19915;-84
2022/07/03 13:55:40;;;;;;;8.60;2.45;;;;;;;;;;5144494;27;20046;-84
2022/07/03 13:58:07;;;;;;;10.13;2.67;;;;;;;;;;5149486;27;20065;-92
2022/07/03 14:00:33;;;;;;;8.07;2.65;;;;;;;;;;5143270;27;20051;-71
2022/07/03 14:03:00;;;;;;;25.52;5.38;;;;;;;;;;5142964;27;20431;-83
2022/07/03 14:05:26;;;;;;;;;;;;;;;;;;5132089;27;20043;-82
2022/07/03 14:07:52;;;;;;;22.17;6.45;;;;;;;;;;5126965;27;19937;-86
2022/07/03 14:10:18;;;;;;;;;;;;;;;;;;5147968;27;20051;-90
2022/07/03 14:12:44;;;;;;;16.70;5.55;;;;;;;;;;5141217;27;20002;-91
2022/07/03 14:15:10;;;;;;;;;;;;;;;;;;5115777;27;20376;-79
2022/07/03 14:17:36;;;;;;;12.93;3.97;;;;;;;;;;5147391;27;19976;-73
2022/07/03 14:20:02;;;;;;;10.27;3.53;;;;;;;;;;5150134;27;20042;-75
2022/07/03 14:22:28;;;;;;;11.05;4.05;;;;;;;;;;5144515;27;20069;-76
2022/07/03 14:24:54;;;;;;;;;;;;;;;;;;5126171;27;20849;-70
2022/07/03 14:32:50;;;;;;;15.30;5.97;;;;;;;;;;5141002;27;20042;-69
2022/07/03 14:35:16;;;;;;;;;;;;;;;;;;5146228;27;20142;-68
2022/07/03 14:37:42;;;;;;;15.27;5.53;;;;;;;;;;5109878;28;20038;-68
2022/07/03 14:40:08;;;;;;;14.68;7.68;;;;;;;;;;5129105;28;20043;-69
2022/07/03 14:42:34;;;;;;;15.00;6.25;;;;;;;;;;5137818;27;20039;-68
2022/07/03 14:45:00;;;;;;;;;;;;;;;;;;5149681;27;20201;-70
2022/07/03 14:47:27;;;;;;;18.42;8.18;;;;;;;;;;5144953;27;20110;-69
2022/07/03 14:49:53;;;;;;;15.32;7.07;;;;;;;;;;5145036;27;20031;-70
2022/07/03 14:52:19;;;;;;;16.65;9.77;;;;;;;;;;5143823;27;20059;-72
2022/07/03 14:54:45;;;;;;;19.90;9.90;;;;;;;;;;5147017;27;20055;-75
2022/07/03 14:57:17;;;;;;;20.00;10.85;;;;;;;;;;5152378;27;20049;-69
2022/07/03 14:59:51;;;;;;;17.55;8.73;;;;;;;;;;5148231;27;20078;-70
2022/07/03 15:02:21;;;;;;;16.38;7.80;;;;;;;;;;5151678;27;20434;-70
2022/07/03 15:05:06;;;;;;;15.48;6.05;;;;;;;;;;5147076;27;20071;-69
2022/07/03 15:07:38;;;;;;;13.05;6.10;;;;;;;;;;5150679;27;20471;-68
2022/07/03 15:10:05;;;;;;;14.57;7.43;;;;;;;;;;5128251;27;20111;-68
2022/07/03 15:12:33;;;;;;;14.30;7.22;;;;;;;;;;5149913;27;20419;-71
2022/07/03 15:14:59;;;;;;;12.95;6.40;;;;;;;;;;5148734;27;20191;-72
2022/07/03 15:17:26;;;;;;;12.82;5.95;;;;;;;;;;5144689;27;20075;-70